sensor_id;sensor_type;location;lat;lon;timestamp;pressure;altitude;pressure_sealevel;temperature;humidity
61961;BME280;47923;42.506;24.192;2023-09-19T00:01:06;95936.47;;;13.35;81.73
61961;BME280;47923;42.506;24.192;2023-09-19T00:03:36;95856.56;;;12.83;81.26
61961;BME280;47923;42.506;24.192;2023-09-19T00:06:03;95994.56;;;13.80;81.57
61961;BME280;47923;42.506;24.192;2023-09-19T00:08:30;95864.28;;;12.81;81.46
61961;BME280;47923;42.506;24.192;2023-09-19T00:10:56;95914.09;;;13.19;81.76
61961;BME280;47923;42.506;24.192;2023-09-19T00:13:21;95984.03;;;13.75;81.56
61961;BME280;47923;42.506;24.192;2023-09-19T00:15:48;95991.00;;;13.76;81.71
61961;BME280;47923;42.506;24.192;2023-09-19T00:18:14;95989.88;;;13.77;81.75
61961;BME280;47923;42.506;24.192;2023-09-19T00:20:41;95548.03;;;10.91;81.79
61961;BME280;47923;42.506;24.192;2023-09-19T00:23:07;95840.66;;;12.82;81.82
61961;BME280;47923;42.506;24.192;2023-09-19T00:25:38;95791.81;;;12.55;82.06
61961;BME280;47923;42.506;24.192;2023-09-19T00:28:04;95991.91;;;13.83;81.29
61961;BME280;47923;42.506;24.192;2023-09-19T00:30:31;95994.72;;;13.91;82.71
61961;BME280;47923;42.506;24.192;2023-09-19T00:32:58;95823.31;;;12.86;80.81
61961;BME280;47923;42.506;24.192;2023-09-19T00:35:23;95983.22;;;14.01;80.09
61961;BME280;47923;42.506;24.192;2023-09-19T00:37:51;95981.75;;;14.07;81.15
61961;BME280;47923;42.506;24.192;2023-09-19T00:40:16;95920.03;;;13.77;82.81
61961;BME280;47923;42.506;24.192;2023-09-19T00:42:43;95980.69;;;14.15;82.63
61961;BME280;47923;42.506;24.192;2023-09-19T00:45:10;95981.06;;;14.14;82.84
61961;BME280;47923;42.506;24.192;2023-09-19T00:47:42;95979.09;;;14.10;83.40
61961;BME280;47923;42.506;24.192;2023-09-19T00:50:09;95977.50;;;14.09;83.57
61961;BME280;47923;42.506;24.192;2023-09-19T00:52:36;95858.84;;;13.27;82.68
61961;BME280;47923;42.506;24.192;2023-09-19T00:55:05;95903.81;;;13.54;82.86
61961;BME280;47923;42.506;24.192;2023-09-19T00:57:32;95964.38;;;13.85;82.59
61961;BME280;47923;42.506;24.192;2023-09-19T01:00:00;95869.75;;;13.31;82.62
61961;BME280;47923;42.506;24.192;2023-09-19T01:02:26;95972.69;;;13.96;82.70
61961;BME280;47923;42.506;24.192;2023-09-19T01:04:55;95884.41;;;13.26;82.44
61961;BME280;47923;42.506;24.192;2023-09-19T01:07:20;95968.34;;;13.91;82.38
61961;BME280;47923;42.506;24.192;2023-09-19T01:09:48;95906.13;;;13.52;81.39
61961;BME280;47923;42.506;24.192;2023-09-19T01:12:16;95900.50;;;13.38;80.65
61961;BME280;47923;42.506;24.192;2023-09-19T01:14:55;95967.66;;;13.71;81.90
61961;BME280;47923;42.506;24.192;2023-09-19T01:17:46;95965.50;;;13.58;82.88
61961;BME280;47923;42.506;24.192;2023-09-19T01:20:57;95897.78;;;12.92;83.87
61961;BME280;47923;42.506;24.192;2023-09-19T01:31:45;95966.06;;;12.98;87.09
61961;BME280;47923;42.506;24.192;2023-09-19T01:34:10;95516.59;;;9.90;86.92
61961;BME280;47923;42.506;24.192;2023-09-19T01:36:37;95962.19;;;12.76;87.81
61961;BME280;47923;42.506;24.192;2023-09-19T01:39:21;95953.38;;;12.60;88.80
61961;BME280;47923;42.506;24.192;2023-09-19T01:44:57;95954.16;;;12.41;89.15
61961;BME280;47923;42.506;24.192;2023-09-19T01:47:48;95909.53;;;11.96;89.12
61961;BME280;47923;42.506;24.192;2023-09-19T01:51:10;95807.13;;;11.24;89.80
61961;BME280;47923;42.506;24.192;2023-09-19T01:53:26;95947.75;;;12.10;91.01
61961;BME280;47923;42.506;24.192;2023-09-19T01:55:56;95944.47;;;12.01;92.15
61961;BME280;47923;42.506;24.192;2023-09-19T01:58:39;95827.28;;;11.11;91.41
61961;BME280;47923;42.506;24.192;2023-09-19T02:01:11;95933.78;;;11.73;92.06
61961;BME280;47923;42.506;24.192;2023-09-19T02:03:38;95960.75;;;11.85;92.53
61961;BME280;47923;42.506;24.192;2023-09-19T02:06:05;95962.59;;;11.81;92.16
61961;BME280;47923;42.506;24.192;2023-09-19T02:08:36;95961.28;;;11.75;91.60
61961;BME280;47923;42.506;24.192;2023-09-19T02:11:02;95969.31;;;11.72;89.58
61961;BME280;47923;42.506;24.192;2023-09-19T02:13:28;95925.97;;;11.52;90.05
61961;BME280;47923;42.506;24.192;2023-09-19T02:15:57;95953.81;;;11.53;91.59
61961;BME280;47923;42.506;24.192;2023-09-19T02:18:22;95924.91;;;11.57;90.65
61961;BME280;47923;42.506;24.192;2023-09-19T02:20:48;95814.00;;;10.71;90.98
61961;BME280;47923;42.506;24.192;2023-09-19T02:23:14;95813.75;;;10.60;91.76
61961;BME280;47923;42.506;24.192;2023-09-19T02:25:40;95948.16;;;11.42;92.35
61961;BME280;47923;42.506;24.192;2023-09-19T02:28:06;95685.22;;;9.64;92.71
61961;BME280;47923;42.506;24.192;2023-09-19T02:30:34;95950.34;;;11.37;92.38
61961;BME280;47923;42.506;24.192;2023-09-19T02:33:00;95942.22;;;11.37;90.77
61961;BME280;47923;42.506;24.192;2023-09-19T02:35:27;95944.56;;;11.38;90.90
61961;BME280;47923;42.506;24.192;2023-09-19T02:37:53;95938.69;;;11.17;90.46
61961;BME280;47923;42.506;24.192;2023-09-19T02:40:18;95855.75;;;10.73;90.85
61961;BME280;47923;42.506;24.192;2023-09-19T02:42:45;95931.44;;;11.21;91.15
61961;BME280;47923;42.506;24.192;2023-09-19T02:45:12;95696.53;;;9.70;91.77
61961;BME280;47923;42.506;24.192;2023-09-19T02:47:40;95815.66;;;10.44;91.93
61961;BME280;47923;42.506;24.192;2023-09-19T02:50:05;95833.69;;;10.56;91.67
61961;BME280;47923;42.506;24.192;2023-09-19T02:52:31;95911.44;;;10.94;91.93
61961;BME280;47923;42.506;24.192;2023-09-19T02:54:56;95763.06;;;9.94;91.76
61961;BME280;47923;42.506;24.192;2023-09-19T02:57:22;95932.03;;;10.98;91.77
61961;BME280;47923;42.506;24.192;2023-09-19T02:59:49;95911.44;;;10.78;91.73
61961;BME280;47923;42.506;24.192;2023-09-19T03:02:15;95864.72;;;10.62;91.63
61961;BME280;47923;42.506;24.192;2023-09-19T03:04:41;95881.81;;;10.82;91.70
61961;BME280;47923;42.506;24.192;2023-09-19T03:07:06;95474.47;;;8.15;91.84
61961;BME280;47923;42.506;24.192;2023-09-19T03:09:32;95916.72;;;11.02;91.12
61961;BME280;47923;42.506;24.192;2023-09-19T03:11:57;95910.41;;;11.14;91.47
61961;BME280;47923;42.506;24.192;2023-09-19T03:14:23;95910.16;;;11.19;94.18
61961;BME280;47923;42.506;24.192;2023-09-19T03:16:49;95907.00;;;11.17;93.25
61961;BME280;47923;42.506;24.192;2023-09-19T03:19:14;95871.63;;;10.91;92.74
61961;BME280;47923;42.506;24.192;2023-09-19T03:21:40;95728.16;;;9.85;92.23
61961;BME280;47923;42.506;24.192;2023-09-19T03:24:05;95899.34;;;10.88;92.96
61961;BME280;47923;42.506;24.192;2023-09-19T03:26:31;95863.03;;;10.41;93.15
61961;BME280;47923;42.506;24.192;2023-09-19T03:28:58;95902.72;;;10.53;93.70
61961;BME280;47923;42.506;24.192;2023-09-19T03:31:23;95924.94;;;10.62;94.77
61961;BME280;47923;42.506;24.192;2023-09-19T03:33:49;95243.56;;;6.28;94.84
61961;BME280;47923;42.506;24.192;2023-09-19T03:36:14;95918.75;;;10.62;95.18
61961;BME280;47923;42.506;24.192;2023-09-19T03:38:40;95921.81;;;10.60;95.51
61961;BME280;47923;42.506;24.192;2023-09-19T03:41:05;95812.78;;;9.93;93.58
61961;BME280;47923;42.506;24.192;2023-09-19T03:43:34;95927.41;;;10.67;93.09
61961;BME280;47923;42.506;24.192;2023-09-19T03:46:02;95921.22;;;10.67;92.56
61961;BME280;47923;42.506;24.192;2023-09-19T03:48:29;95820.97;;;9.96;91.97
61961;BME280;47923;42.506;24.192;2023-09-19T03:50:55;95304.84;;;6.51;89.98
61961;BME280;47923;42.506;24.192;2023-09-19T03:53:21;95748.94;;;9.41;91.26
61961;BME280;47923;42.506;24.192;2023-09-19T03:55:47;95897.72;;;10.39;92.36
61961;BME280;47923;42.506;24.192;2023-09-19T03:58:12;95796.63;;;9.81;93.66
61961;BME280;47923;42.506;24.192;2023-09-19T04:00:38;95912.31;;;10.50;92.98
61961;BME280;47923;42.506;24.192;2023-09-19T04:03:04;95935.09;;;10.65;94.17
61961;BME280;47923;42.506;24.192;2023-09-19T04:05:31;95927.22;;;10.60;94.10
61961;BME280;47923;42.506;24.192;2023-09-19T04:07:58;95934.91;;;10.58;93.06
61961;BME280;47923;42.506;24.192;2023-09-19T04:10:24;95931.72;;;10.56;93.55
61961;BME280;47923;42.506;24.192;2023-09-19T04:12:53;95708.03;;;9.11;94.11
61961;BME280;47923;42.506;24.192;2023-09-19T04:15:18;95800.47;;;9.80;94.95
61961;BME280;47923;42.506;24.192;2023-09-19T04:17:44;95927.75;;;10.66;95.43
61961;BME280;47923;42.506;24.192;2023-09-19T04:20:10;95928.53;;;10.66;94.51
61961;BME280;47923;42.506;24.192;2023-09-19T04:22:37;95931.75;;;10.72;92.59
61961;BME280;47923;42.506;24.192;2023-09-19T04:25:05;95581.97;;;8.24;91.09
61961;BME280;47923;42.506;24.192;2023-09-19T04:27:32;95925.91;;;10.70;91.42
61961;BME280;47923;42.506;24.192;2023-09-19T04:29:57;95875.34;;;10.39;90.99
61961;BME280;47923;42.506;24.192;2023-09-19T04:32:26;95930.97;;;10.71;92.18
61961;BME280;47923;42.506;24.192;2023-09-19T04:34:53;95930.72;;;10.76;91.75
61961;BME280;47923;42.506;24.192;2023-09-19T04:37:20;95932.22;;;10.90;90.77
61961;BME280;47923;42.506;24.192;2023-09-19T04:39:46;95684.53;;;9.39;89.81
61961;BME280;47923;42.506;24.192;2023-09-19T04:42:13;95885.75;;;10.68;88.27
61961;BME280;47923;42.506;24.192;2023-09-19T04:44:39;95871.63;;;10.91;88.27
61961;BME280;47923;42.506;24.192;2023-09-19T04:47:05;95936.56;;;11.42;88.07
61961;BME280;47923;42.506;24.192;2023-09-19T04:49:31;95956.88;;;11.35;88.47
61961;BME280;47923;42.506;24.192;2023-09-19T04:51:56;95946.47;;;11.69;87.56
61961;BME280;47923;42.506;24.192;2023-09-19T04:54:22;95944.94;;;11.87;87.32
61961;BME280;47923;42.506;24.192;2023-09-19T04:56:48;95784.72;;;11.08;85.50
61961;BME280;47923;42.506;24.192;2023-09-19T04:59:13;95804.63;;;11.35;83.48
61961;BME280;47923;42.506;24.192;2023-09-19T05:01:40;95949.88;;;12.59;81.45
61961;BME280;47923;42.506;24.192;2023-09-19T05:04:05;95945.03;;;12.91;82.11
61961;BME280;47923;42.506;24.192;2023-09-19T05:06:31;95916.72;;;12.89;81.15
61961;BME280;47923;42.506;24.192;2023-09-19T05:08:56;95925.03;;;13.45;80.38
61961;BME280;47923;42.506;24.192;2023-09-19T05:11:22;95937.41;;;15.48;75.81
61961;BME280;47923;42.506;24.192;2023-09-19T05:13:48;95751.72;;;17.29;63.60
61961;BME280;47923;42.506;24.192;2023-09-19T05:16:16;95926.59;;;20.80;51.56
61961;BME280;47923;42.506;24.192;2023-09-19T05:18:41;95919.63;;;22.79;45.28
61961;BME280;47923;42.506;24.192;2023-09-19T05:21:07;95602.94;;;22.63;40.01
61961;BME280;47923;42.506;24.192;2023-09-19T05:23:33;95879.34;;;25.72;36.55
61961;BME280;47923;42.506;24.192;2023-09-19T05:25:58;95928.34;;;27.07;35.25
61961;BME280;47923;42.506;24.192;2023-09-19T05:28:25;95919.50;;;27.89;32.88
61961;BME280;47923;42.506;24.192;2023-09-19T05:30:52;95921.78;;;29.09;31.16
61961;BME280;47923;42.506;24.192;2023-09-19T05:33:19;95855.28;;;29.54;29.71
61961;BME280;47923;42.506;24.192;2023-09-19T05:35:44;95922.31;;;29.89;29.54
61961;BME280;47923;42.506;24.192;2023-09-19T05:38:12;95907.38;;;30.01;29.54
61961;BME280;47923;42.506;24.192;2023-09-19T05:40:39;95926.16;;;31.22;28.04
61961;BME280;47923;42.506;24.192;2023-09-19T05:43:07;95923.03;;;30.76;28.15
61961;BME280;47923;42.506;24.192;2023-09-19T05:45:33;95884.03;;;28.29;32.25
61961;BME280;47923;42.506;24.192;2023-09-19T05:48:08;95903.47;;;27.93;32.73
61961;BME280;47923;42.506;24.192;2023-09-19T05:50:34;95615.31;;;24.82;34.00
61961;BME280;47923;42.506;24.192;2023-09-19T05:52:59;95903.94;;;24.39;38.33
61961;BME280;47923;42.506;24.192;2023-09-19T05:55:25;95541.31;;;20.67;41.66
61961;BME280;47923;42.506;24.192;2023-09-19T05:57:51;95904.56;;;23.85;41.19
61961;BME280;47923;42.506;24.192;2023-09-19T06:00:20;95877.31;;;26.73;34.60
61961;BME280;47923;42.506;24.192;2023-09-19T06:02:53;95908.03;;;26.00;36.61
61961;BME280;47923;42.506;24.192;2023-09-19T06:05:19;95910.03;;;26.22;36.06
61961;BME280;47923;42.506;24.192;2023-09-19T06:07:45;95900.41;;;26.48;35.66
61961;BME280;47923;42.506;24.192;2023-09-19T06:10:11;95827.44;;;27.90;33.67
61961;BME280;47923;42.506;24.192;2023-09-19T06:12:42;95901.38;;;30.41;29.63
61961;BME280;47923;42.506;24.192;2023-09-19T06:15:14;95682.53;;;30.81;27.24
61961;BME280;47923;42.506;24.192;2023-09-19T06:17:52;95772.81;;;31.19;27.37
61961;BME280;47923;42.506;24.192;2023-09-19T06:20:20;95846.91;;;30.16;29.22
61961;BME280;47923;42.506;24.192;2023-09-19T06:22:47;95894.94;;;30.65;29.00
61961;BME280;47923;42.506;24.192;2023-09-19T06:25:14;95894.34;;;31.34;28.36
61961;BME280;47923;42.506;24.192;2023-09-19T06:27:49;95709.81;;;29.97;27.89
61961;BME280;47923;42.506;24.192;2023-09-19T06:30:17;95839.25;;;31.15;28.47
61961;BME280;47923;42.506;24.192;2023-09-19T06:32:43;95889.41;;;31.79;27.27
61961;BME280;47923;42.506;24.192;2023-09-19T06:35:10;95897.56;;;29.91;29.77
61961;BME280;47923;42.506;24.192;2023-09-19T06:37:37;95887.13;;;30.00;30.15
61961;BME280;47923;42.506;24.192;2023-09-19T06:42:44;95858.16;;;29.83;29.87
61961;BME280;47923;42.506;24.192;2023-09-19T06:45:14;95868.47;;;29.68;30.29
61961;BME280;47923;42.506;24.192;2023-09-19T06:47:51;95785.00;;;28.08;32.27
61961;BME280;47923;42.506;24.192;2023-09-19T06:50:21;95864.97;;;29.58;30.88
61961;BME280;47923;42.506;24.192;2023-09-19T06:52:52;95728.53;;;28.96;30.20
61961;BME280;47923;42.506;24.192;2023-09-19T06:55:20;95824.00;;;30.36;29.28
61961;BME280;47923;42.506;24.192;2023-09-19T06:57:46;95849.34;;;31.12;28.86
61961;BME280;47923;42.506;24.192;2023-09-19T07:00:14;95862.59;;;33.12;26.42
61961;BME280;47923;42.506;24.192;2023-09-19T07:03:00;95810.53;;;34.45;24.20
61961;BME280;47923;42.506;24.192;2023-09-19T07:05:31;95858.28;;;34.95;23.80
61961;BME280;47923;42.506;24.192;2023-09-19T07:07:57;95863.88;;;35.46;23.42
61961;BME280;47923;42.506;24.192;2023-09-19T07:10:25;95876.91;;;34.93;23.74
61961;BME280;47923;42.506;24.192;2023-09-19T07:12:58;95835.56;;;35.10;23.66
61961;BME280;47923;42.506;24.192;2023-09-19T07:15:24;95879.97;;;35.51;22.88
61961;BME280;47923;42.506;24.192;2023-09-19T07:17:51;95729.19;;;34.78;23.13
61961;BME280;47923;42.506;24.192;2023-09-19T07:20:18;95871.00;;;34.79;23.69
61961;BME280;47923;42.506;24.192;2023-09-19T07:22:44;95801.88;;;35.27;23.77
61961;BME280;47923;42.506;24.192;2023-09-19T07:25:09;95742.63;;;35.25;22.40
61961;BME280;47923;42.506;24.192;2023-09-19T07:27:35;95873.88;;;34.91;23.41
61961;BME280;47923;42.506;24.192;2023-09-19T07:30:00;95784.47;;;34.22;24.68
61961;BME280;47923;42.506;24.192;2023-09-19T07:32:26;95823.06;;;35.11;22.29
61961;BME280;47923;42.506;24.192;2023-09-19T07:34:51;95880.25;;;35.13;23.27
61961;BME280;47923;42.506;24.192;2023-09-19T07:37:17;95649.41;;;33.19;23.61
61961;BME280;47923;42.506;24.192;2023-09-19T07:39:42;95672.50;;;33.03;24.17
61961;BME280;47923;42.506;24.192;2023-09-19T07:42:08;95847.03;;;35.46;24.94
61961;BME280;47923;42.506;24.192;2023-09-19T07:44:36;95780.34;;;35.63;22.17
61961;BME280;47923;42.506;24.192;2023-09-19T07:47:02;95780.63;;;36.53;21.55
61961;BME280;47923;42.506;24.192;2023-09-19T07:49:28;95850.00;;;36.80;21.01
61961;BME280;47923;42.506;24.192;2023-09-19T07:51:54;95842.41;;;38.03;20.80
61961;BME280;47923;42.506;24.192;2023-09-19T07:54:20;95844.13;;;38.50;20.60
61961;BME280;47923;42.506;24.192;2023-09-19T07:56:46;95865.13;;;39.37;19.18
61961;BME280;47923;42.506;24.192;2023-09-19T07:59:12;95852.94;;;38.78;19.58
61961;BME280;47923;42.506;24.192;2023-09-19T08:01:39;95590.19;;;36.91;19.55
61961;BME280;47923;42.506;24.192;2023-09-19T08:04:07;95843.25;;;37.25;20.72
61961;BME280;47923;42.506;24.192;2023-09-19T08:06:32;95794.09;;;37.94;19.89
61961;BME280;47923;42.506;24.192;2023-09-19T08:08:58;95781.00;;;35.80;21.74
61961;BME280;47923;42.506;24.192;2023-09-19T08:11:25;95824.84;;;36.11;21.87
61961;BME280;47923;42.506;24.192;2023-09-19T08:13:55;95596.91;;;33.96;22.58
61961;BME280;47923;42.506;24.192;2023-09-19T08:16:21;95787.25;;;34.11;23.42
61961;BME280;47923;42.506;24.192;2023-09-19T08:18:48;95841.72;;;33.93;24.40
61961;BME280;47923;42.506;24.192;2023-09-19T08:21:14;95717.97;;;34.39;23.14
61961;BME280;47923;42.506;24.192;2023-09-19T08:23:41;95826.63;;;35.28;22.45
61961;BME280;47923;42.506;24.192;2023-09-19T08:26:07;95688.88;;;34.93;22.04
61961;BME280;47923;42.506;24.192;2023-09-19T08:28:36;95827.66;;;34.86;23.45
61961;BME280;47923;42.506;24.192;2023-09-19T08:31:05;95763.28;;;34.04;23.65
61961;BME280;47923;42.506;24.192;2023-09-19T08:33:35;95828.63;;;33.30;25.27
61961;BME280;47923;42.506;24.192;2023-09-19T08:36:04;95833.38;;;33.18;25.61
61961;BME280;47923;42.506;24.192;2023-09-19T08:38:34;95829.25;;;32.77;25.84
61961;BME280;47923;42.506;24.192;2023-09-19T08:41:04;95824.63;;;32.22;26.07
61961;BME280;47923;42.506;24.192;2023-09-19T08:43:30;95822.97;;;31.48;27.30
61961;BME280;47923;42.506;24.192;2023-09-19T08:46:03;95830.75;;;31.59;27.38
61961;BME280;47923;42.506;24.192;2023-09-19T08:48:34;95564.47;;;31.30;25.37
61961;BME280;47923;42.506;24.192;2023-09-19T08:51:03;95820.22;;;32.61;25.42
61961;BME280;47923;42.506;24.192;2023-09-19T08:53:36;95814.66;;;33.84;24.61
61961;BME280;47923;42.506;24.192;2023-09-19T08:56:09;95806.47;;;34.79;23.07
61961;BME280;47923;42.506;24.192;2023-09-19T08:58:44;95747.66;;;33.21;24.25
61961;BME280;47923;42.506;24.192;2023-09-19T09:01:16;95808.00;;;34.47;23.47
61961;BME280;47923;42.506;24.192;2023-09-19T09:03:48;95756.66;;;32.93;24.57
61961;BME280;47923;42.506;24.192;2023-09-19T09:06:14;95820.34;;;31.59;26.38
61961;BME280;47923;42.506;24.192;2023-09-19T09:08:41;95811.19;;;30.30;28.28
61961;BME280;47923;42.506;24.192;2023-09-19T09:11:07;95775.09;;;29.82;28.88
61961;BME280;47923;42.506;24.192;2023-09-19T09:13:35;95811.59;;;29.84;29.03
61961;BME280;47923;42.506;24.192;2023-09-19T09:16:02;95808.78;;;30.96;27.55
61961;BME280;47923;42.506;24.192;2023-09-19T09:18:28;95757.13;;;31.21;27.01
61961;BME280;47923;42.506;24.192;2023-09-19T09:20:55;95804.25;;;32.15;26.15
61961;BME280;47923;42.506;24.192;2023-09-19T09:23:21;95811.03;;;32.87;25.01
61961;BME280;47923;42.506;24.192;2023-09-19T09:25:54;95798.97;;;32.23;26.02
61961;BME280;47923;42.506;24.192;2023-09-19T09:28:23;95796.66;;;32.42;25.88
61961;BME280;47923;42.506;24.192;2023-09-19T09:30:49;95790.06;;;32.45;25.85
61961;BME280;47923;42.506;24.192;2023-09-19T09:33:18;95794.75;;;33.65;24.72
61961;BME280;47923;42.506;24.192;2023-09-19T09:38:23;95769.63;;;33.99;23.79
61961;BME280;47923;42.506;24.192;2023-09-19T09:40:54;95777.53;;;32.66;25.19
61961;BME280;47923;42.506;24.192;2023-09-19T09:43:36;95783.00;;;31.37;27.13
61961;BME280;47923;42.506;24.192;2023-09-19T09:46:10;95786.38;;;30.61;28.41
61961;BME280;47923;42.506;24.192;2023-09-19T09:48:58;95776.28;;;31.28;28.18
61961;BME280;47923;42.506;24.192;2023-09-19T09:54:24;95754.03;;;32.01;26.38
61961;BME280;47923;42.506;24.192;2023-09-19T09:56:57;95762.03;;;32.65;26.37
61961;BME280;47923;42.506;24.192;2023-09-19T10:02:20;95766.28;;;30.87;27.50
61961;BME280;47923;42.506;24.192;2023-09-19T10:04:55;95386.47;;;28.13;28.37
61961;BME280;47923;42.506;24.192;2023-09-19T10:07:39;95768.81;;;30.70;28.50
61961;BME280;47923;42.506;24.192;2023-09-19T10:10:08;95769.78;;;30.22;28.58
61961;BME280;47923;42.506;24.192;2023-09-19T10:12:48;95761.59;;;30.04;29.42
61961;BME280;47923;42.506;24.192;2023-09-19T10:15:18;95671.25;;;29.13;29.15
61961;BME280;47923;42.506;24.192;2023-09-19T10:17:46;95765.84;;;28.80;30.99
61961;BME280;47923;42.506;24.192;2023-09-19T10:20:17;95745.69;;;28.61;30.83
61961;BME280;47923;42.506;24.192;2023-09-19T10:23:09;95751.44;;;28.81;30.59
61961;BME280;47923;42.506;24.192;2023-09-19T10:25:46;95689.03;;;28.82;30.09
61961;BME280;47923;42.506;24.192;2023-09-19T10:28:14;95757.28;;;29.64;30.04
61961;BME280;47923;42.506;24.192;2023-09-19T10:30:46;95754.59;;;30.38;29.20
61961;BME280;47923;42.506;24.192;2023-09-19T10:33:17;95745.56;;;30.29;29.03
61961;BME280;47923;42.506;24.192;2023-09-19T10:35:46;95743.16;;;31.01;27.71
61961;BME280;47923;42.506;24.192;2023-09-19T10:38:18;95748.63;;;30.75;28.15
61961;BME280;47923;42.506;24.192;2023-09-19T10:40:44;95740.66;;;30.53;27.89
61961;BME280;47923;42.506;24.192;2023-09-19T10:43:16;95735.94;;;30.74;27.92
61961;BME280;47923;42.506;24.192;2023-09-19T10:45:45;95627.28;;;30.65;28.58
61961;BME280;47923;42.506;24.192;2023-09-19T10:48:19;95727.03;;;31.46;27.56
61961;BME280;47923;42.506;24.192;2023-09-19T10:51:07;95720.94;;;31.27;27.09
61961;BME280;47923;42.506;24.192;2023-09-19T10:54:05;95712.88;;;32.27;26.63
61961;BME280;47923;42.506;24.192;2023-09-19T10:56:37;95732.28;;;32.99;25.37
61961;BME280;47923;42.506;24.192;2023-09-19T10:59:14;95712.38;;;31.97;26.55
61961;BME280;47923;42.506;24.192;2023-09-19T11:01:46;95713.16;;;30.96;28.08
61961;BME280;47923;42.506;24.192;2023-09-19T11:09:52;95701.69;;;30.73;28.06
61961;BME280;47923;42.506;24.192;2023-09-19T11:26:48;95522.47;;;28.55;29.51
61961;BME280;47923;42.506;24.192;2023-09-19T11:29:27;95688.00;;;29.28;30.04
61961;BME280;47923;42.506;24.192;2023-09-19T11:31:54;95603.63;;;28.83;29.88
61961;BME280;47923;42.506;24.192;2023-09-19T11:40:05;95662.88;;;29.37;30.75
61961;BME280;47923;42.506;24.192;2023-09-19T11:42:44;95644.44;;;28.77;30.65
61961;BME280;47923;42.506;24.192;2023-09-19T11:48:18;95623.16;;;28.50;30.83
61961;BME280;47923;42.506;24.192;2023-09-19T11:50:45;95660.63;;;28.12;31.51
61961;BME280;47923;42.506;24.192;2023-09-19T11:53:12;95541.22;;;27.27;32.12
61961;BME280;47923;42.506;24.192;2023-09-19T11:55:39;95645.19;;;28.53;32.11
61961;BME280;47923;42.506;24.192;2023-09-19T11:58:07;95649.84;;;28.80;31.39
61961;BME280;47923;42.506;24.192;2023-09-19T12:00:35;95489.63;;;27.63;31.34
61961;BME280;47923;42.506;24.192;2023-09-19T12:03:08;95634.66;;;28.24;31.85
61961;BME280;47923;42.506;24.192;2023-09-19T12:05:34;95533.16;;;27.48;31.89
61961;BME280;47923;42.506;24.192;2023-09-19T12:08:00;95632.97;;;28.60;32.49
61961;BME280;47923;42.506;24.192;2023-09-19T12:10:27;95425.81;;;27.63;31.41
61961;BME280;47923;42.506;24.192;2023-09-19T12:12:52;95544.91;;;28.18;31.00
61961;BME280;47923;42.506;24.192;2023-09-19T12:15:28;95632.91;;;28.69;31.09
61961;BME280;47923;42.506;24.192;2023-09-19T12:17:54;95548.38;;;28.37;31.33
61961;BME280;47923;42.506;24.192;2023-09-19T12:20:20;95538.81;;;28.29;31.56
61961;BME280;47923;42.506;24.192;2023-09-19T12:22:47;95618.53;;;28.47;31.99
61961;BME280;47923;42.506;24.192;2023-09-19T12:25:13;95466.94;;;27.32;32.39
61961;BME280;47923;42.506;24.192;2023-09-19T12:27:44;95611.31;;;27.98;32.44
61961;BME280;47923;42.506;24.192;2023-09-19T12:30:12;95459.19;;;26.75;32.90
61961;BME280;47923;42.506;24.192;2023-09-19T12:32:40;95606.19;;;27.72;32.87
61961;BME280;47923;42.506;24.192;2023-09-19T12:35:06;95598.31;;;27.62;33.93
61961;BME280;47923;42.506;24.192;2023-09-19T12:37:44;95513.22;;;27.07;33.77
61961;BME280;47923;42.506;24.192;2023-09-19T12:40:18;95511.81;;;27.21;33.53
61961;BME280;47923;42.506;24.192;2023-09-19T12:42:51;95590.13;;;27.76;33.36
61961;BME280;47923;42.506;24.192;2023-09-19T12:45:19;95588.19;;;27.40;33.38
61961;BME280;47923;42.506;24.192;2023-09-19T12:51:08;95589.59;;;26.90;34.46
61961;BME280;47923;42.506;24.192;2023-09-19T12:53:42;95561.72;;;26.84;34.32
61961;BME280;47923;42.506;24.192;2023-09-19T12:56:10;95582.81;;;27.09;34.46
61961;BME280;47923;42.506;24.192;2023-09-19T12:58:57;95497.50;;;26.86;34.43
61961;BME280;47923;42.506;24.192;2023-09-19T13:01:28;95565.97;;;27.49;33.62
61961;BME280;47923;42.506;24.192;2023-09-19T13:04:21;95571.72;;;27.27;34.33
61961;BME280;47923;42.506;24.192;2023-09-19T13:06:55;95566.78;;;27.32;33.88
61961;BME280;47923;42.506;24.192;2023-09-19T13:09:26;95560.69;;;27.61;33.84
61961;BME280;47923;42.506;24.192;2023-09-19T13:11:59;95560.03;;;27.84;33.87
61961;BME280;47923;42.506;24.192;2023-09-19T13:14:28;95559.47;;;28.37;32.91
61961;BME280;47923;42.506;24.192;2023-09-19T13:19:48;95498.84;;;27.78;32.35
61961;BME280;47923;42.506;24.192;2023-09-19T13:22:40;95557.13;;;28.12;32.77
61961;BME280;47923;42.506;24.192;2023-09-19T13:25:19;95435.41;;;27.20;33.00
61961;BME280;47923;42.506;24.192;2023-09-19T13:30:14;95546.38;;;27.62;33.76
61961;BME280;47923;42.506;24.192;2023-09-19T13:32:39;95540.53;;;27.51;34.48
61961;BME280;47923;42.506;24.192;2023-09-19T13:35:06;95549.03;;;27.47;33.97
61961;BME280;47923;42.506;24.192;2023-09-19T13:37:38;95541.16;;;27.46;33.84
61961;BME280;47923;42.506;24.192;2023-09-19T13:42:33;95412.88;;;26.02;34.06
61961;BME280;47923;42.506;24.192;2023-09-19T13:44:59;95449.03;;;26.26;34.39
61961;BME280;47923;42.506;24.192;2023-09-19T13:47:25;95547.41;;;26.86;34.20
61961;BME280;47923;42.506;24.192;2023-09-19T13:49:52;95438.09;;;26.13;34.36
61961;BME280;47923;42.506;24.192;2023-09-19T13:52:20;95499.81;;;26.32;34.90
61961;BME280;47923;42.506;24.192;2023-09-19T13:54:48;95533.84;;;26.69;34.84
61961;BME280;47923;42.506;24.192;2023-09-19T13:57:14;95393.34;;;25.87;34.83
61961;BME280;47923;42.506;24.192;2023-09-19T13:59:39;95390.41;;;25.82;34.77
61961;BME280;47923;42.506;24.192;2023-09-19T14:02:05;95537.84;;;26.78;34.74